createdAt,value
2023-01-09T00:01:37.152Z,28.80
2023-01-09T00:04:04.204Z,29.00
2023-01-09T00:06:31.161Z,27.80
2023-01-09T00:08:57.995Z,33.00
2023-01-09T00:11:24.916Z,26.10
2023-01-09T00:13:51.792Z,23.80
2023-01-09T00:16:18.723Z,30.10
2023-01-09T00:18:45.653Z,31.80
2023-01-09T00:21:13.368Z,29.80
2023-01-09T00:23:40.319Z,31.30
2023-01-09T00:26:10.038Z,25.10
2023-01-09T00:28:36.899Z,33.60
2023-01-09T00:31:05.319Z,26.30
2023-01-09T00:33:37.309Z,32.80
2023-01-09T00:36:04.450Z,32.50
2023-01-09T00:38:31.516Z,33.30
2023-01-09T00:40:58.460Z,30.30
2023-01-09T00:43:28.508Z,27.60
2023-01-09T00:45:55.421Z,35.40
2023-01-09T00:48:26.937Z,30.60
2023-01-09T00:53:23.620Z,25.00
2023-01-09T00:55:51.762Z,27.00
2023-01-09T00:58:19.780Z,30.40
2023-01-09T01:00:47.035Z,26.50
2023-01-09T01:03:13.893Z,25.80
2023-01-09T01:05:59.755Z,28.80
2023-01-09T01:08:26.673Z,30.10
2023-01-09T01:10:53.681Z,27.80
2023-01-09T01:13:20.570Z,24.40
2023-01-09T01:15:47.549Z,29.40
2023-01-09T01:18:14.803Z,29.60
2023-01-09T01:20:42.777Z,29.80
2023-01-09T01:23:09.722Z,30.80
2023-01-09T01:25:41.144Z,25.00
2023-01-09T01:28:08.267Z,29.00
2023-01-09T01:30:39.878Z,21.60
2023-01-09T01:35:33.936Z,24.90
2023-01-09T01:38:01.008Z,24.90
2023-01-09T01:40:28.207Z,21.60
2023-01-09T01:42:55.765Z,21.90
2023-01-09T01:45:27.481Z,21.50
2023-01-09T01:47:59.009Z,23.70
2023-01-09T01:53:06.159Z,21.30
2023-01-09T01:55:35.099Z,20.30
2023-01-09T01:58:03.455Z,22.20
2023-01-09T02:00:32.983Z,29.50
2023-01-09T02:03:00.266Z,20.30
2023-01-09T02:05:27.197Z,22.10
2023-01-09T02:07:54.070Z,21.80
2023-01-09T02:10:23.691Z,24.40
2023-01-09T02:12:51.055Z,20.20
2023-01-09T02:15:17.922Z,25.40
2023-01-09T02:18:00.145Z,27.20
2023-01-09T02:20:36.482Z,19.90
2023-01-09T02:23:29.120Z,24.70
2023-01-09T02:26:02.190Z,24.70
2023-01-09T02:29:14.216Z,21.50
2023-01-09T02:34:33.200Z,23.40
2023-01-09T02:37:14.519Z,21.60
2023-01-09T02:40:01.042Z,21.40
2023-01-09T02:42:27.906Z,26.10
2023-01-09T02:44:54.815Z,28.70
2023-01-09T02:47:21.710Z,22.40
2023-01-09T02:49:56.327Z,20.10
2023-01-09T02:52:35.365Z,20.40
2023-01-09T02:55:27.422Z,22.90
2023-01-09T02:58:23.435Z,27.70
2023-01-09T03:00:58.572Z,20.20
2023-01-09T03:03:45.079Z,21.70
2023-01-09T03:06:33.357Z,20.80
2023-01-09T03:09:03.161Z,22.60
2023-01-09T03:11:32.649Z,21.00
2023-01-09T03:14:04.381Z,18.60
2023-01-09T03:16:40.134Z,16.80
2023-01-09T03:19:11.023Z,16.20
2023-01-09T03:21:37.928Z,19.90
2023-01-09T03:24:05.142Z,21.30
2023-01-09T03:26:32.015Z,19.60
2023-01-09T03:28:59.063Z,16.50
2023-01-09T03:31:26.036Z,23.10
2023-01-09T03:33:53.020Z,21.10
2023-01-09T03:36:20.738Z,18.90
2023-01-09T03:38:47.701Z,23.30
2023-01-09T03:41:14.594Z,18.00
2023-01-09T03:43:41.463Z,16.10
2023-01-09T03:46:08.352Z,21.40
2023-01-09T03:48:35.374Z,21.50
2023-01-09T03:51:02.243Z,20.30
2023-01-09T03:53:29.333Z,19.00
2023-01-09T14:28:00.054Z,13.00
2023-01-09T14:30:26.947Z,15.00
2023-01-09T14:33:18.969Z,22.50
2023-01-09T14:38:51.782Z,15.80
2023-01-09T14:42:03.767Z,16.60
2023-01-09T14:44:32.551Z,12.20
2023-01-09T14:47:27.014Z,17.30
2023-01-09T14:50:04.291Z,19.10
2023-01-09T14:52:34.292Z,12.70
2023-01-09T14:55:02.481Z,15.30
2023-01-09T14:57:31.092Z,12.10
2023-01-09T15:00:13.561Z,13.60
2023-01-09T15:02:41.479Z,19.00
2023-01-09T15:05:13.060Z,12.60
2023-01-09T15:08:09.391Z,16.20
2023-01-09T15:10:43.596Z,14.60
2023-01-09T15:13:15.290Z,17.60
2023-01-09T15:15:46.844Z,15.20
2023-01-09T15:20:47.114Z,26.50
2023-01-09T15:23:25.444Z,18.30
2023-01-09T15:25:52.507Z,24.40
2023-01-09T15:28:25.527Z,35.30
2023-01-09T15:31:04.902Z,18.60
2023-01-09T15:33:32.321Z,21.60
2023-01-09T15:36:02.815Z,22.00
2023-01-09T15:38:31.528Z,22.60
2023-01-09T15:41:05.092Z,20.40
2023-01-09T15:43:31.973Z,17.30
2023-01-09T15:45:59.050Z,23.60
2023-01-09T15:48:28.054Z,21.70
2023-01-09T15:51:04.609Z,18.70
2023-01-09T15:53:31.663Z,23.50
2023-01-09T15:56:20.464Z,24.40
2023-01-09T15:58:54.183Z,22.60
2023-01-09T16:01:40.193Z,17.80
2023-01-09T16:04:15.826Z,23.40
2023-01-09T16:06:48.122Z,20.20
2023-01-09T16:09:23.458Z,22.30
2023-01-09T16:11:53.222Z,19.70
2023-01-09T16:14:30.822Z,19.50
2023-01-09T16:17:02.775Z,23.80
2023-01-09T16:19:49.191Z,18.00
2023-01-09T16:22:32.948Z,25.60
2023-01-09T16:25:01.417Z,20.20
2023-01-09T16:27:31.277Z,22.90
2023-01-09T16:30:08.835Z,14.50
2023-01-09T16:32:45.387Z,17.50
2023-01-09T16:35:17.025Z,22.10
2023-01-09T16:40:23.050Z,24.60
2023-01-09T16:43:01.986Z,31.70
2023-01-09T16:45:33.884Z,17.10
2023-01-09T16:50:28.396Z,23.40
2023-01-09T16:52:56.172Z,16.90
2023-01-09T16:55:23.073Z,21.40
2023-01-09T16:57:49.943Z,25.80
2023-01-09T17:00:20.409Z,21.30
2023-01-09T17:02:48.296Z,19.70
2023-01-09T17:05:15.411Z,18.30
2023-01-09T17:07:42.324Z,21.30
2023-01-09T17:10:16.279Z,24.30
2023-01-09T17:12:43.632Z,18.60
2023-01-09T17:15:10.708Z,24.70
2023-01-09T17:17:37.536Z,24.60
2023-01-09T17:20:13.844Z,25.80
2023-01-09T17:22:40.797Z,18.70
2023-01-09T17:25:34.783Z,20.20
2023-01-09T17:28:21.369Z,23.70
2023-01-09T17:30:48.349Z,17.40
2023-01-09T17:33:19.086Z,15.00
2023-01-09T17:35:46.081Z,13.60
2023-01-09T17:38:16.358Z,17.50
2023-01-09T17:40:43.487Z,16.60
2023-01-09T17:43:10.467Z,23.90
2023-01-09T17:45:38.233Z,15.60
2023-01-09T17:48:05.447Z,23.30
2023-01-09T17:50:34.778Z,17.70
2023-01-09T21:33:39.170Z,9.00
2023-01-09T21:36:06.754Z,8.80
2023-01-09T21:38:33.722Z,7.50
2023-01-09T21:41:20.635Z,7.10
2023-01-09T21:44:06.426Z,9.90
2023-01-09T21:46:51.842Z,7.80
2023-01-09T21:49:19.856Z,9.10
2023-01-09T21:51:46.719Z,8.20
2023-01-09T21:54:13.730Z,12.80
2023-01-09T21:56:40.664Z,5.90
2023-01-09T21:59:07.700Z,8.90
2023-01-09T22:01:34.867Z,5.50
2023-01-09T22:04:01.925Z,8.00
2023-01-09T22:06:28.997Z,6.30
2023-01-09T22:08:56.371Z,6.20
2023-01-09T22:11:23.318Z,6.70
2023-01-09T22:13:50.637Z,9.80
2023-01-09T22:16:17.686Z,13.20
2023-01-09T22:18:44.665Z,12.10
2023-01-09T22:21:11.713Z,9.00
2023-01-09T22:23:38.706Z,6.50
2023-01-09T22:26:13.258Z,23.00
2023-01-09T22:28:40.470Z,10.60
2023-01-09T22:31:15.439Z,11.30
2023-01-09T22:33:42.432Z,14.20
2023-01-09T22:36:10.977Z,6.90
2023-01-09T22:38:37.895Z,28.00
2023-01-09T22:41:05.035Z,9.60
2023-01-09T22:43:31.961Z,9.60
2023-01-09T22:46:03.063Z,9.20
2023-01-09T22:48:31.961Z,14.50
2023-01-09T22:51:00.791Z,6.10
2023-01-09T22:53:28.668Z,9.80
2023-01-09T22:55:57.002Z,9.20
2023-01-09T22:58:25.094Z,12.20
2023-01-09T23:00:52.453Z,10.40
2023-01-09T23:03:19.368Z,9.00
2023-01-09T23:05:46.279Z,10.90
2023-01-09T23:08:14.324Z,8.80
2023-01-09T23:10:41.373Z,8.60
2023-01-09T23:13:08.313Z,9.60
2023-01-09T23:15:35.344Z,9.30
2023-01-09T23:18:02.299Z,7.60
2023-01-09T23:20:29.225Z,9.80
2023-01-09T23:22:58.852Z,8.30
2023-01-09T23:25:25.962Z,5.70
2023-01-09T23:27:53.263Z,13.60
2023-01-09T23:30:20.207Z,9.30
2023-01-09T23:32:47.190Z,8.50
2023-01-09T23:35:16.260Z,6.00
2023-01-09T23:37:43.791Z,8.50
2023-01-09T23:40:12.311Z,10.00
2023-01-09T23:42:58.396Z,10.10
2023-01-09T23:45:25.445Z,13.20
2023-01-09T23:47:52.391Z,9.50
2023-01-09T23:50:19.336Z,9.20
